createdAt,value
2023-03-16T00:00:36.124Z,0.00
2023-03-16T00:01:36.179Z,0.00
2023-03-16T00:02:36.137Z,0.00
2023-03-16T00:03:36.151Z,0.00
2023-03-16T00:04:36.101Z,0.00
2023-03-16T00:05:36.093Z,0.00
2023-03-16T00:06:57.077Z,0.00
2023-03-16T00:07:36.067Z,0.00
2023-03-16T00:08:36.075Z,0.00
2023-03-16T00:09:36.156Z,0.00
2023-03-16T00:10:35.998Z,0.00
2023-03-16T00:11:35.994Z,0.00
2023-03-16T00:12:36.021Z,0.00
2023-03-16T00:13:35.995Z,0.00
2023-03-16T00:14:35.953Z,0.00
2023-03-16T00:15:35.959Z,0.00
2023-03-16T00:16:35.986Z,0.00
2023-03-16T00:17:35.926Z,0.00
2023-03-16T00:18:35.915Z,0.00
2023-03-16T00:21:20.287Z,0.00
2023-03-16T00:22:20.232Z,0.00
2023-03-16T00:23:20.260Z,0.00
2023-03-16T00:24:20.203Z,0.00
2023-03-16T00:25:20.190Z,0.00
2023-03-16T00:26:20.195Z,0.00
2023-03-16T00:27:20.153Z,0.00
2023-03-16T00:28:20.163Z,0.00
2023-03-16T00:29:20.177Z,0.00
2023-03-16T00:30:20.156Z,0.00
2023-03-16T00:31:20.172Z,0.00
2023-03-16T00:32:20.083Z,0.00
2023-03-16T00:33:20.142Z,0.00
2023-03-16T00:34:20.076Z,0.00
2023-03-16T00:35:20.040Z,0.00
2023-03-16T00:36:20.038Z,0.00
2023-03-16T00:37:20.055Z,0.00
2023-03-16T00:38:20.026Z,0.00
2023-03-16T00:39:19.988Z,0.00
2023-03-16T00:40:20.014Z,0.00
2023-03-16T00:41:19.968Z,0.00
2023-03-16T00:42:19.987Z,0.00
2023-03-16T00:43:19.947Z,0.00
2023-03-16T00:44:19.909Z,0.00
2023-03-16T00:45:19.921Z,0.00
2023-03-16T00:46:19.987Z,0.00
2023-03-16T00:47:19.926Z,0.00
2023-03-16T00:48:19.877Z,0.00
2023-03-16T00:49:19.850Z,0.00
2023-03-16T00:50:19.834Z,0.00
2023-03-16T00:51:19.899Z,0.00
2023-03-16T00:52:19.812Z,0.00
2023-03-16T00:53:19.798Z,0.00
2023-03-16T00:54:19.806Z,0.00
2023-03-16T00:55:19.779Z,0.00
2023-03-16T00:56:19.749Z,0.00
2023-03-16T00:57:19.792Z,0.00
2023-03-16T00:58:19.750Z,0.00
2023-03-16T00:59:19.808Z,0.00
2023-03-16T01:00:19.730Z,0.00
2023-03-16T01:01:19.784Z,0.00
2023-03-16T01:02:19.732Z,0.00
2023-03-16T01:03:19.726Z,0.00
2023-03-16T01:04:19.649Z,0.00
2023-03-16T01:05:19.674Z,0.00
2023-03-16T01:06:19.631Z,0.00
2023-03-16T01:07:19.652Z,0.00
2023-03-16T01:08:19.637Z,0.00
2023-03-16T01:09:19.660Z,0.00
2023-03-16T01:10:19.575Z,0.00
2023-03-16T01:11:19.575Z,0.00
2023-03-16T01:12:19.587Z,0.00
2023-03-16T01:13:19.581Z,0.00
2023-03-16T01:14:19.538Z,0.00
2023-03-16T01:15:19.539Z,0.00
2023-03-16T01:16:19.666Z,0.00
2023-03-16T01:17:19.515Z,0.00
2023-03-16T01:18:19.482Z,0.00
2023-03-16T01:19:19.648Z,0.00
2023-03-16T01:20:19.478Z,0.00
2023-03-16T01:21:19.419Z,0.00
2023-03-16T01:22:19.471Z,0.00
2023-03-16T01:23:19.419Z,0.00
2023-03-16T01:24:19.491Z,0.00
2023-03-16T01:25:19.373Z,0.00
2023-03-16T01:26:19.357Z,0.00
2023-03-16T01:27:19.353Z,0.00
2023-03-16T01:28:19.326Z,0.00
2023-03-16T01:29:19.365Z,0.00
2023-03-16T01:30:19.340Z,0.00
2023-03-16T01:31:19.375Z,0.00
2023-03-16T01:32:19.298Z,0.00
2023-03-16T01:33:19.321Z,0.00
2023-03-16T01:34:19.288Z,0.00
2023-03-16T01:35:19.231Z,0.00
2023-03-16T01:36:19.232Z,0.00
2023-03-16T01:37:19.246Z,0.00
2023-03-16T01:38:19.284Z,0.00
2023-03-16T01:39:19.197Z,0.00
2023-03-16T01:40:19.203Z,0.00
2023-03-16T01:41:19.178Z,0.00
2023-03-16T01:42:19.166Z,0.00
2023-03-16T01:43:19.176Z,0.00
2023-03-16T01:44:19.166Z,0.00
2023-03-16T01:45:19.109Z,0.00
2023-03-16T01:46:19.198Z,0.00
2023-03-16T01:47:19.093Z,0.00
2023-03-16T01:48:19.062Z,0.00
2023-03-16T01:49:19.047Z,0.00
2023-03-16T01:50:19.040Z,0.00
2023-03-16T01:51:19.028Z,0.00
2023-03-16T01:52:19.052Z,0.00
2023-03-16T01:53:18.986Z,0.00
2023-03-16T01:54:19.021Z,0.00
2023-03-16T01:55:18.978Z,0.00
2023-03-16T01:56:18.952Z,0.00
2023-03-16T01:57:18.970Z,0.00
2023-03-16T01:58:18.963Z,0.00
2023-03-16T01:59:18.923Z,0.00
2023-03-16T02:00:18.950Z,0.00
2023-03-16T02:01:18.976Z,0.00
2023-03-16T02:02:18.881Z,0.00
2023-03-16T02:03:18.934Z,0.00
2023-03-16T02:04:18.933Z,0.00
2023-03-16T02:05:19.065Z,0.00
2023-03-16T02:06:18.847Z,0.00
2023-03-16T02:07:18.817Z,0.00
2023-03-16T02:08:18.831Z,0.00
2023-03-16T02:09:18.812Z,0.00
2023-03-16T02:11:39.533Z,0.00
2023-03-16T02:12:39.458Z,0.00
2023-03-16T02:13:39.467Z,0.00
2023-03-16T02:14:39.424Z,0.00
2023-03-16T02:15:39.476Z,0.00
2023-03-16T02:16:39.409Z,0.00
2023-03-16T02:17:39.404Z,0.00
2023-03-16T02:18:39.389Z,0.00
2023-03-16T02:19:39.397Z,0.00
2023-03-16T02:20:39.338Z,0.00
2023-03-16T02:21:39.355Z,0.00
2023-03-16T02:22:39.328Z,0.00
2023-03-16T02:23:39.309Z,0.00
2023-03-16T02:24:39.298Z,0.00
2023-03-16T02:25:39.308Z,0.00
2023-03-16T02:26:39.276Z,0.00
2023-03-16T02:27:43.665Z,0.00
2023-03-16T02:28:39.247Z,0.00
2023-03-16T02:29:39.251Z,0.00
2023-03-16T02:30:39.222Z,0.00
2023-03-16T02:31:39.285Z,0.00
2023-03-16T02:32:39.244Z,0.00
2023-03-16T02:33:39.181Z,0.00
2023-03-16T02:34:39.164Z,0.00
2023-03-16T02:35:39.201Z,0.00
2023-03-16T02:36:39.149Z,0.00
2023-03-16T02:37:39.157Z,0.00
2023-03-16T02:38:39.147Z,0.00
2023-03-16T02:39:39.135Z,0.00
2023-03-16T02:40:39.098Z,0.00
2023-03-16T02:41:39.097Z,0.00
2023-03-16T02:42:39.061Z,0.00
2023-03-16T02:43:39.072Z,0.00
2023-03-16T02:44:39.032Z,0.00
2023-03-16T02:45:39.047Z,0.00
2023-03-16T02:46:39.051Z,0.00
2023-03-16T02:47:39.068Z,0.00
2023-03-16T02:48:38.973Z,0.00
2023-03-16T02:49:39.028Z,0.00
2023-03-16T02:50:38.950Z,0.00
2023-03-16T02:51:38.961Z,0.00
2023-03-16T02:52:38.973Z,0.00
2023-03-16T02:53:39.035Z,0.00
2023-03-16T02:54:38.907Z,0.00
2023-03-16T02:55:38.901Z,0.00
2023-03-16T02:56:38.931Z,0.00
2023-03-16T02:57:38.910Z,0.00
2023-03-16T02:58:38.850Z,0.00
2023-03-16T02:59:38.866Z,0.00
2023-03-16T03:00:38.834Z,0.00
2023-03-16T03:01:38.835Z,0.00
2023-03-16T03:02:39.045Z,0.00
2023-03-16T03:03:38.876Z,0.00
2023-03-16T03:04:38.845Z,0.00
2023-03-16T03:05:38.764Z,0.00
2023-03-16T03:06:38.754Z,0.00
2023-03-16T03:07:38.771Z,0.00
2023-03-16T03:08:38.754Z,0.00
2023-03-16T03:09:38.717Z,0.00
2023-03-16T03:10:38.690Z,0.00
2023-03-16T03:11:38.713Z,0.00
2023-03-16T03:12:38.706Z,0.00
2023-03-16T03:13:38.700Z,0.00
2023-03-16T03:14:38.664Z,0.00
2023-03-16T03:15:38.628Z,0.00
2023-03-16T03:16:38.703Z,0.00
2023-03-16T03:17:38.668Z,0.00
2023-03-16T03:18:38.672Z,0.00
2023-03-16T03:19:38.583Z,0.00
2023-03-16T03:20:38.643Z,0.00
2023-03-16T03:21:38.592Z,0.00
2023-03-16T03:22:38.545Z,0.00
2023-03-16T03:23:38.571Z,0.00
2023-03-16T03:24:38.513Z,0.00
2023-03-16T03:25:38.503Z,0.00
2023-03-16T03:26:38.684Z,0.00
2023-03-16T03:27:38.519Z,0.00
2023-03-16T03:28:38.509Z,0.00
2023-03-16T03:29:38.486Z,0.00
2023-03-16T03:30:38.503Z,0.00
2023-03-16T03:31:38.636Z,0.00
2023-03-16T03:32:38.483Z,0.00
2023-03-16T03:33:38.417Z,0.00
2023-03-16T03:34:38.437Z,0.00
2023-03-16T03:35:38.473Z,0.00
2023-03-16T03:36:38.393Z,0.00
2023-03-16T03:37:38.390Z,0.00
2023-03-16T03:38:38.342Z,0.00
2023-03-16T03:39:38.368Z,0.00
2023-03-16T03:40:38.343Z,0.00
2023-03-16T03:41:38.302Z,0.00
2023-03-16T03:42:38.294Z,0.00
2023-03-16T03:43:38.328Z,0.00
2023-03-16T03:44:38.274Z,0.00
2023-03-16T03:45:38.341Z,0.00
2023-03-16T03:46:38.429Z,0.00
2023-03-16T03:47:38.223Z,0.00
2023-03-16T03:48:38.236Z,0.00
2023-03-16T03:49:38.222Z,0.00
2023-03-16T03:50:38.275Z,0.00
2023-03-16T03:51:38.306Z,0.00
2023-03-16T03:52:38.165Z,0.00
2023-03-16T03:53:38.155Z,0.00
2023-03-16T03:54:38.159Z,0.00
2023-03-16T03:55:38.128Z,0.00
2023-03-16T03:56:38.119Z,0.00
2023-03-16T03:57:38.110Z,0.00
2023-03-16T03:58:38.086Z,0.00
2023-03-16T03:59:38.070Z,0.00
2023-03-16T04:00:38.107Z,0.00
2023-03-16T04:01:38.050Z,0.00
2023-03-16T04:02:38.166Z,0.00
2023-03-16T04:03:38.104Z,0.00
2023-03-16T04:04:38.023Z,0.00
2023-03-16T04:05:38.043Z,0.00
2023-03-16T04:06:37.995Z,0.00
2023-03-16T04:07:37.965Z,0.00
2023-03-16T04:08:37.961Z,0.00
2023-03-16T04:09:37.972Z,0.00
2023-03-16T04:10:37.960Z,0.00
2023-03-16T04:11:37.926Z,0.00
2023-03-16T04:12:37.932Z,0.00
2023-03-16T04:13:37.925Z,0.00
2023-03-16T04:14:37.934Z,0.00
2023-03-16T04:15:37.887Z,0.00
2023-03-16T04:16:37.981Z,0.00
2023-03-16T04:17:37.836Z,0.00
2023-03-16T04:18:38.429Z,0.00
2023-03-16T04:19:37.811Z,0.00
2023-03-16T04:20:37.963Z,0.00
2023-03-16T04:21:37.782Z,0.00
2023-03-16T04:22:37.778Z,0.00
2023-03-16T04:23:37.762Z,0.00
2023-03-16T04:24:37.746Z,0.00
2023-03-16T04:25:37.746Z,0.00
2023-03-16T04:26:37.725Z,0.00
2023-03-16T04:27:37.732Z,0.00
2023-03-16T04:28:37.731Z,0.00
2023-03-16T04:29:37.702Z,0.00
2023-03-16T04:30:37.770Z,0.00
2023-03-16T04:31:37.692Z,0.00
2023-03-16T04:32:37.693Z,0.00
2023-03-16T04:33:37.662Z,0.00
2023-03-16T04:34:37.623Z,0.00
2023-03-16T04:35:37.649Z,0.00
2023-03-16T04:36:37.597Z,0.00
2023-03-16T04:37:37.596Z,0.00
2023-03-16T04:38:37.593Z,0.00
2023-03-16T04:39:37.552Z,0.00
2023-03-16T04:40:37.534Z,0.00
2023-03-16T04:41:37.537Z,0.00
2023-03-16T04:42:37.534Z,0.00
2023-03-16T04:43:37.557Z,0.00
2023-03-16T04:44:37.521Z,0.00
2023-03-16T04:45:37.626Z,0.00
2023-03-16T04:46:37.549Z,0.00
2023-03-16T04:47:37.457Z,0.00
2023-03-16T04:48:37.475Z,0.00
2023-03-16T04:49:37.443Z,0.00
2023-03-16T04:50:37.497Z,0.00
2023-03-16T04:51:37.410Z,0.00
2023-03-16T04:52:37.376Z,0.00
2023-03-16T04:53:37.417Z,0.00
2023-03-16T04:54:37.400Z,0.00
2023-03-16T04:55:37.375Z,0.00
2023-03-16T04:56:37.410Z,0.00
2023-03-16T04:57:37.329Z,0.00
2023-03-16T04:58:37.316Z,0.00
2023-03-16T04:59:37.309Z,0.00
2023-03-16T05:00:37.326Z,0.00
2023-03-16T05:01:37.283Z,0.00
2023-03-16T05:02:37.259Z,0.00
2023-03-16T05:03:37.288Z,0.00
2023-03-16T05:04:37.234Z,0.00
2023-03-16T05:05:37.235Z,0.00
2023-03-16T05:06:37.231Z,0.00
2023-03-16T05:07:37.191Z,0.00
2023-03-16T05:08:37.189Z,0.00
2023-03-16T05:09:37.164Z,0.00
2023-03-16T05:10:37.170Z,0.00
2023-03-16T05:11:37.195Z,0.00
2023-03-16T05:12:37.171Z,0.00
2023-03-16T05:13:37.122Z,0.00
2023-03-16T05:14:37.114Z,0.00
2023-03-16T05:15:37.111Z,0.00
2023-03-16T05:16:37.076Z,0.00
2023-03-16T05:17:37.081Z,0.00
2023-03-16T05:18:37.107Z,0.00
2023-03-16T05:19:37.064Z,0.00
2023-03-16T05:20:37.035Z,0.00
2023-03-16T05:21:37.040Z,0.00
2023-03-16T05:22:37.004Z,0.00
2023-03-16T05:23:37.094Z,0.00
2023-03-16T05:24:36.992Z,0.00
2023-03-16T05:25:36.964Z,0.00
2023-03-16T05:26:36.962Z,0.00
2023-03-16T05:27:36.948Z,0.00
2023-03-16T05:28:36.962Z,0.00
2023-03-16T05:29:37.144Z,0.00
2023-03-16T05:30:36.929Z,0.00
2023-03-16T05:31:36.938Z,0.00
2023-03-16T05:32:36.951Z,0.00
2023-03-16T05:33:36.886Z,0.00
2023-03-16T05:34:36.852Z,0.00
2023-03-16T05:35:37.247Z,0.00
2023-03-16T05:36:36.872Z,0.00
2023-03-16T05:37:36.815Z,0.00
2023-03-16T05:38:36.886Z,0.00
2023-03-16T05:39:36.849Z,0.00
2023-03-16T05:40:36.812Z,0.00
2023-03-16T05:41:36.860Z,0.00
2023-03-16T05:42:36.761Z,5.62
2023-03-16T05:43:36.769Z,5.62
2023-03-16T05:44:36.759Z,5.62
2023-03-16T05:45:36.724Z,5.62
2023-03-16T05:46:36.737Z,5.62
2023-03-16T05:47:36.712Z,5.62
2023-03-16T05:48:36.705Z,5.62
2023-03-16T05:49:36.706Z,5.62
2023-03-16T05:50:36.663Z,5.62
2023-03-16T05:51:36.673Z,5.62
2023-03-16T05:52:36.644Z,11.25
2023-03-16T05:53:36.635Z,11.25
2023-03-16T05:54:36.603Z,11.25
2023-03-16T05:55:36.620Z,11.25
2023-03-16T05:56:36.585Z,11.25
2023-03-16T05:57:36.655Z,11.25
2023-03-16T05:58:36.600Z,11.25
2023-03-16T05:59:36.543Z,11.25
2023-03-16T06:00:36.555Z,11.25
2023-03-16T06:01:36.512Z,11.25
2023-03-16T06:02:36.548Z,11.25
2023-03-16T06:03:36.562Z,11.25
2023-03-16T06:04:36.510Z,11.25
2023-03-16T06:05:36.461Z,16.88
2023-03-16T06:06:36.445Z,16.88
2023-03-16T06:07:36.446Z,16.88
2023-03-16T06:08:36.515Z,16.88
2023-03-16T06:09:36.434Z,22.50
2023-03-16T06:10:36.417Z,22.50
2023-03-16T06:11:36.456Z,22.50
2023-03-16T06:12:36.411Z,22.50
2023-03-16T06:13:36.397Z,28.12
2023-03-16T06:14:36.353Z,28.12
2023-03-16T06:15:36.366Z,28.12
2023-03-16T06:16:36.409Z,33.75
2023-03-16T06:17:36.407Z,33.75
2023-03-16T06:18:36.306Z,33.75
2023-03-16T06:19:36.306Z,39.38
2023-03-16T06:20:36.270Z,39.38
2023-03-16T06:21:36.385Z,45.00
2023-03-16T06:22:36.263Z,45.00
2023-03-16T06:23:36.250Z,45.00
2023-03-16T06:24:36.308Z,45.00
2023-03-16T06:25:37.750Z,45.00
2023-03-16T06:26:36.205Z,45.00
2023-03-16T06:27:36.208Z,45.00
2023-03-16T06:28:36.200Z,45.00
2023-03-16T06:29:36.166Z,45.00
2023-03-16T06:30:36.165Z,45.00
2023-03-16T06:31:36.273Z,39.38
2023-03-16T06:32:36.280Z,39.38
2023-03-16T06:33:36.141Z,39.38
2023-03-16T06:34:38.069Z,39.38
2023-03-16T06:35:36.138Z,39.38
2023-03-16T06:36:36.063Z,39.38
2023-03-16T06:37:36.044Z,45.00
2023-03-16T06:38:36.063Z,45.00
2023-03-16T06:39:36.080Z,50.62
2023-03-16T06:40:36.009Z,50.62
2023-03-16T06:41:36.030Z,56.25
2023-03-16T06:42:36.009Z,56.25
2023-03-16T06:43:36.030Z,61.88
2023-03-16T06:45:47.538Z,67.50
2023-03-16T06:46:47.474Z,73.12
2023-03-16T06:47:47.447Z,78.75
2023-03-16T06:48:47.464Z,78.75
2023-03-16T06:49:47.420Z,78.75
2023-03-16T06:50:47.446Z,78.75
2023-03-16T06:51:47.413Z,78.75
2023-03-16T06:52:47.386Z,78.75
2023-03-16T06:53:54.945Z,78.75
2023-03-16T06:54:47.382Z,84.38
2023-03-16T06:55:47.380Z,90.00
2023-03-16T06:56:47.390Z,90.00
2023-03-16T06:57:47.345Z,90.00
2023-03-16T06:58:47.325Z,95.62
2023-03-16T06:59:47.316Z,101.25
2023-03-16T07:00:47.372Z,112.50
2023-03-16T07:01:47.297Z,118.12
2023-03-16T07:02:47.336Z,129.38
2023-03-16T07:03:47.333Z,135.00
2023-03-16T07:04:47.265Z,151.88
2023-03-16T07:05:47.268Z,151.88
2023-03-16T07:06:47.298Z,157.50
2023-03-16T07:07:47.208Z,163.12
2023-03-16T07:08:47.251Z,168.75
2023-03-16T07:09:47.199Z,174.38
2023-03-16T07:10:47.249Z,174.38
2023-03-16T07:11:47.178Z,180.00
2023-03-16T07:12:47.140Z,180.00
2023-03-16T07:13:47.132Z,174.38
2023-03-16T07:14:50.441Z,174.38
2023-03-16T07:15:47.110Z,168.75
2023-03-16T07:16:47.154Z,168.75
2023-03-16T07:17:47.134Z,163.12
2023-03-16T07:18:47.076Z,157.50
2023-03-16T07:19:47.090Z,151.88
2023-03-16T07:20:47.064Z,157.50
2023-03-16T07:21:47.052Z,163.12
2023-03-16T07:22:47.029Z,157.50
2023-03-16T07:23:47.035Z,157.50
2023-03-16T07:24:47.032Z,163.12
2023-03-16T07:25:47.004Z,157.50
2023-03-16T07:26:46.983Z,151.88
2023-03-16T07:27:46.978Z,151.88
2023-03-16T07:28:46.944Z,151.88
2023-03-16T07:29:46.947Z,151.88
2023-03-16T07:31:02.469Z,151.88
2023-03-16T07:31:47.992Z,151.88
2023-03-16T07:32:46.956Z,151.88
2023-03-16T07:33:46.952Z,157.50
2023-03-16T07:34:46.921Z,157.50
2023-03-16T07:35:46.940Z,157.50
2023-03-16T07:36:46.867Z,163.12
2023-03-16T07:37:46.866Z,163.12
2023-03-16T07:38:46.840Z,168.75
2023-03-16T07:39:46.856Z,174.38
2023-03-16T07:40:46.791Z,174.38
2023-03-16T07:41:46.812Z,185.62
2023-03-16T07:42:46.787Z,191.25
2023-03-16T07:43:46.765Z,202.50
2023-03-16T07:44:46.767Z,208.12
2023-03-16T07:45:46.787Z,213.75
2023-03-16T07:46:46.725Z,219.38
2023-03-16T07:47:46.739Z,219.38
2023-03-16T07:48:46.717Z,213.75
2023-03-16T07:49:46.758Z,213.75
2023-03-16T07:50:46.688Z,208.12
2023-03-16T07:51:46.669Z,202.50
2023-03-16T07:52:46.671Z,191.25
2023-03-16T07:53:46.656Z,185.62
2023-03-16T07:54:46.644Z,174.38
2023-03-16T07:55:46.663Z,168.75
2023-03-16T07:56:49.567Z,168.75
2023-03-16T07:57:46.618Z,163.12
2023-03-16T07:58:46.607Z,163.12
2023-03-16T07:59:46.573Z,168.75
2023-03-16T08:00:46.556Z,168.75
2023-03-16T08:01:46.567Z,168.75
2023-03-16T08:02:46.562Z,168.75
2023-03-16T08:03:46.531Z,168.75
2023-03-16T08:04:46.512Z,163.12
2023-03-16T08:05:46.557Z,151.88
2023-03-16T08:06:46.529Z,146.25
2023-03-16T08:07:46.472Z,135.00
2023-03-16T08:08:46.503Z,129.38
2023-03-16T08:09:46.476Z,129.38
2023-03-16T08:10:46.463Z,129.38
2023-03-16T08:11:54.035Z,123.75
2023-03-16T08:12:46.446Z,123.75
2023-03-16T08:13:46.389Z,123.75
2023-03-16T08:14:46.381Z,123.75
2023-03-16T08:15:46.578Z,123.75
2023-03-16T08:16:46.372Z,118.12
2023-03-16T08:17:46.403Z,118.12
2023-03-16T08:18:46.352Z,112.50
2023-03-16T08:19:46.363Z,112.50
2023-03-16T08:20:46.305Z,112.50
2023-03-16T08:22:00.613Z,112.50
2023-03-16T08:22:47.312Z,112.50
2023-03-16T08:23:46.275Z,118.12
2023-03-16T08:24:46.262Z,118.12
2023-03-16T08:25:46.261Z,118.12
2023-03-16T08:26:46.284Z,118.12
2023-03-16T08:27:46.260Z,123.75
2023-03-16T08:28:46.308Z,123.75
2023-03-16T08:29:46.215Z,129.38
2023-03-16T08:30:46.291Z,129.38
2023-03-16T08:31:46.219Z,123.75
2023-03-16T08:32:46.240Z,123.75
2023-03-16T08:33:46.145Z,118.12
2023-03-16T08:34:46.126Z,118.12
2023-03-16T08:35:46.259Z,118.12
2023-03-16T08:36:46.107Z,118.12
2023-03-16T08:37:46.138Z,118.12
2023-03-16T08:38:59.920Z,118.12
2023-03-16T08:39:47.099Z,118.12
2023-03-16T08:40:46.072Z,118.12
2023-03-16T08:41:46.100Z,118.12
2023-03-16T08:42:46.104Z,118.12
2023-03-16T08:43:46.033Z,123.75
2023-03-16T08:44:46.058Z,123.75
2023-03-16T08:45:46.037Z,129.38
2023-03-16T08:46:46.123Z,135.00
2023-03-16T08:47:45.998Z,135.00
2023-03-16T08:48:46.035Z,135.00
2023-03-16T08:49:45.944Z,129.38
2023-03-16T08:50:45.961Z,129.38
2023-03-16T08:51:45.922Z,123.75
2023-03-16T08:52:45.946Z,123.75
2023-03-16T08:53:45.926Z,129.38
2023-03-16T08:55:01.479Z,129.38
2023-03-16T08:55:46.889Z,129.38
2023-03-16T08:56:45.857Z,135.00
2023-03-16T08:57:45.844Z,135.00
2023-03-16T08:58:45.822Z,135.00
2023-03-16T08:59:45.821Z,135.00
2023-03-16T09:00:47.442Z,135.00
2023-03-16T09:01:45.911Z,135.00
2023-03-16T09:02:45.840Z,135.00
2023-03-16T09:03:45.885Z,135.00
2023-03-16T09:04:45.886Z,135.00
2023-03-16T09:05:45.836Z,135.00
2023-03-16T09:06:47.626Z,140.62
2023-03-16T09:07:48.918Z,146.25
2023-03-16T09:08:45.783Z,151.88
2023-03-16T09:09:45.741Z,157.50
2023-03-16T09:10:45.745Z,157.50
2023-03-16T09:11:45.695Z,163.12
2023-03-16T09:12:45.695Z,168.75
2023-03-16T09:13:45.665Z,174.38
2023-03-16T09:14:45.646Z,180.00
2023-03-16T09:15:45.719Z,202.50
2023-03-16T09:16:45.632Z,225.00
2023-03-16T09:17:45.663Z,247.50
2023-03-16T09:18:45.690Z,264.38
2023-03-16T09:19:51.726Z,286.88
2023-03-16T09:20:46.592Z,298.12
2023-03-16T09:21:47.319Z,303.75
2023-03-16T09:22:45.654Z,298.12
2023-03-16T09:23:45.531Z,292.50
2023-03-16T09:24:45.682Z,286.88
2023-03-16T09:25:45.534Z,275.62
2023-03-16T09:26:45.593Z,275.62
2023-03-16T09:27:45.492Z,281.25
2023-03-16T09:28:45.473Z,292.50
2023-03-16T09:29:45.549Z,298.12
2023-03-16T09:30:45.478Z,303.75
2023-03-16T09:31:45.470Z,315.00
2023-03-16T09:32:45.445Z,320.62
2023-03-16T09:33:45.399Z,309.38
2023-03-16T09:34:45.400Z,298.12
2023-03-16T09:35:45.462Z,286.88
2023-03-16T09:36:45.377Z,292.50
2023-03-16T09:38:01.082Z,298.12
2023-03-16T09:38:46.375Z,309.38
2023-03-16T09:39:45.353Z,315.00
2023-03-16T09:40:47.054Z,320.62
2023-03-16T09:41:45.324Z,326.25
2023-03-16T09:42:45.372Z,331.88
2023-03-16T09:43:45.286Z,337.50
2023-03-16T09:44:45.253Z,337.50
2023-03-16T09:45:45.278Z,337.50
2023-03-16T09:46:45.249Z,326.25
2023-03-16T09:47:45.285Z,309.38
2023-03-16T09:48:45.203Z,286.88
2023-03-16T09:49:45.337Z,270.00
2023-03-16T09:50:49.339Z,264.38
2023-03-16T09:51:45.206Z,270.00
2023-03-16T09:52:45.177Z,275.62
2023-03-16T09:53:46.015Z,286.88
2023-03-16T09:54:45.177Z,298.12
2023-03-16T09:55:45.114Z,315.00
2023-03-16T09:56:45.101Z,320.62
2023-03-16T09:57:45.110Z,331.88
2023-03-16T09:58:45.049Z,343.12
2023-03-16T09:59:45.219Z,354.38
2023-03-16T10:00:45.056Z,365.62
2023-03-16T10:01:45.059Z,365.62
2023-03-16T10:02:45.038Z,354.38
2023-03-16T10:03:45.005Z,331.88
2023-03-16T10:04:45.124Z,315.00
2023-03-16T10:05:44.965Z,292.50
2023-03-16T10:06:44.940Z,275.62
2023-03-16T10:07:44.972Z,253.12
2023-03-16T10:08:44.957Z,247.50
2023-03-16T10:09:44.916Z,241.88
2023-03-16T10:10:44.941Z,247.50
2023-03-16T10:11:44.891Z,258.75
2023-03-16T10:12:44.863Z,264.38
2023-03-16T10:13:44.849Z,275.62
2023-03-16T10:14:44.880Z,281.25
2023-03-16T10:15:44.877Z,281.25
2023-03-16T10:16:44.898Z,281.25
2023-03-16T10:17:44.824Z,281.25
2023-03-16T10:18:44.784Z,292.50
2023-03-16T10:19:44.756Z,303.75
2023-03-16T10:20:44.775Z,315.00
2023-03-16T10:21:44.743Z,320.62
2023-03-16T10:22:44.716Z,309.38
2023-03-16T10:23:44.723Z,292.50
2023-03-16T10:24:44.694Z,270.00
2023-03-16T10:25:44.741Z,253.12
2023-03-16T10:26:44.683Z,247.50
2023-03-16T10:27:44.684Z,236.25
2023-03-16T10:28:44.630Z,225.00
2023-03-16T10:29:44.662Z,219.38
2023-03-16T10:30:44.627Z,219.38
2023-03-16T10:31:44.685Z,225.00
2023-03-16T10:32:44.633Z,225.00
2023-03-16T10:33:44.588Z,225.00
2023-03-16T10:34:44.592Z,236.25
2023-03-16T10:35:44.555Z,241.88
2023-03-16T10:36:44.586Z,247.50
2023-03-16T10:37:44.514Z,241.88
2023-03-16T10:38:44.512Z,230.62
2023-03-16T10:39:44.533Z,219.38
2023-03-16T10:40:44.552Z,219.38
2023-03-16T10:41:44.463Z,219.38
2023-03-16T10:42:44.443Z,219.38
2023-03-16T10:43:44.459Z,219.38
2023-03-16T10:44:44.409Z,219.38
2023-03-16T10:45:44.505Z,230.62
2023-03-16T10:46:44.439Z,241.88
2023-03-16T10:47:44.380Z,247.50
2023-03-16T10:48:44.347Z,264.38
2023-03-16T10:49:44.455Z,281.25
2023-03-16T10:50:44.334Z,298.12
2023-03-16T10:51:44.384Z,309.38
2023-03-16T10:52:44.309Z,315.00
2023-03-16T10:53:44.338Z,320.62
2023-03-16T10:54:44.325Z,320.62
2023-03-16T10:55:44.275Z,315.00
2023-03-16T10:56:44.269Z,315.00
2023-03-16T10:57:44.245Z,320.62
2023-03-16T10:58:44.254Z,326.25
2023-03-16T10:59:44.219Z,326.25
2023-03-16T11:00:44.226Z,326.25
2023-03-16T11:01:44.189Z,331.88
2023-03-16T11:02:44.193Z,331.88
2023-03-16T11:03:44.158Z,343.12
2023-03-16T11:04:44.238Z,343.12
2023-03-16T11:05:44.131Z,337.50
2023-03-16T11:06:44.103Z,337.50
2023-03-16T11:07:44.094Z,326.25
2023-03-16T11:08:44.101Z,326.25
2023-03-16T11:09:44.062Z,326.25
2023-03-16T11:10:55.241Z,337.50
2023-03-16T11:11:45.060Z,348.75
2023-03-16T11:12:44.041Z,360.00
2023-03-16T11:13:44.030Z,365.62
2023-03-16T11:14:44.231Z,388.12
2023-03-16T11:15:44.050Z,371.25
2023-03-16T11:16:44.029Z,354.38
2023-03-16T11:17:43.977Z,348.75
2023-03-16T11:18:43.966Z,348.75
2023-03-16T11:19:43.934Z,365.62
2023-03-16T11:20:43.949Z,360.00
2023-03-16T11:21:43.894Z,348.75
2023-03-16T11:22:43.944Z,354.38
2023-03-16T11:23:43.888Z,343.12
2023-03-16T11:24:43.884Z,331.88
2023-03-16T11:25:43.840Z,309.38
2023-03-16T11:26:43.833Z,320.62
2023-03-16T11:27:43.829Z,315.00
2023-03-16T11:28:43.827Z,410.62
2023-03-16T11:29:43.798Z,376.88
2023-03-16T11:30:43.808Z,354.38
2023-03-16T11:31:43.780Z,371.25
2023-03-16T11:32:43.763Z,371.25
2023-03-16T11:33:43.765Z,365.62
2023-03-16T11:34:43.731Z,376.88
2023-03-16T11:35:56.326Z,410.62
2023-03-16T11:36:44.691Z,405.00
2023-03-16T11:37:43.680Z,399.38
2023-03-16T11:38:43.690Z,371.25
2023-03-16T11:39:43.668Z,348.75
2023-03-16T11:40:43.642Z,354.38
2023-03-16T11:41:43.631Z,365.62
2023-03-16T11:42:43.617Z,365.62
2023-03-16T11:43:43.606Z,348.75
2023-03-16T11:44:43.602Z,365.62
2023-03-16T11:45:43.583Z,365.62
2023-03-16T11:46:43.557Z,360.00
2023-03-16T11:47:43.533Z,354.38
2023-03-16T11:48:43.534Z,360.00
2023-03-16T11:49:43.539Z,348.75
2023-03-16T11:50:43.540Z,326.25
2023-03-16T11:51:43.515Z,331.88
2023-03-16T11:52:43.489Z,343.12
2023-03-16T11:53:43.471Z,337.50
2023-03-16T11:54:43.473Z,337.50
2023-03-16T11:55:43.461Z,331.88
2023-03-16T11:56:43.444Z,320.62
2023-03-16T11:57:43.409Z,326.25
2023-03-16T11:58:43.385Z,315.00
2023-03-16T11:59:48.970Z,320.62
2023-03-16T12:00:44.370Z,315.00
2023-03-16T12:01:54.379Z,315.00
2023-03-16T12:02:44.514Z,309.38
2023-03-16T12:03:43.352Z,303.75
2023-03-16T12:04:43.410Z,270.00
2023-03-16T12:05:44.963Z,270.00
2023-03-16T12:06:43.291Z,281.25
2023-03-16T12:07:43.278Z,275.62
2023-03-16T12:08:43.262Z,275.62
2023-03-16T12:09:43.331Z,275.62
2023-03-16T12:10:43.231Z,309.38
2023-03-16T12:11:43.234Z,331.88
2023-03-16T12:12:43.323Z,337.50
2023-03-16T12:13:43.181Z,337.50
2023-03-16T12:14:43.175Z,331.88
2023-03-16T12:15:43.218Z,326.25
2023-03-16T12:16:49.608Z,331.88
2023-03-16T12:17:44.154Z,337.50
2023-03-16T12:18:43.119Z,331.88
2023-03-16T12:19:43.166Z,326.25
2023-03-16T12:20:43.097Z,326.25
2023-03-16T12:21:43.124Z,326.25
2023-03-16T12:22:43.112Z,326.25
2023-03-16T12:23:43.069Z,326.25
2023-03-16T12:24:43.034Z,326.25
2023-03-16T12:25:43.037Z,326.25
2023-03-16T12:26:43.045Z,326.25
2023-03-16T12:27:43.028Z,320.62
2023-03-16T12:28:42.980Z,320.62
2023-03-16T12:29:42.989Z,320.62
2023-03-16T12:30:42.965Z,320.62
2023-03-16T12:31:43.069Z,315.00
2023-03-16T12:32:43.108Z,309.38
2023-03-16T12:33:43.040Z,309.38
2023-03-16T12:34:43.038Z,303.75
2023-03-16T12:35:43.027Z,303.75
2023-03-16T12:36:42.913Z,309.38
2023-03-16T12:37:42.889Z,309.38
2023-03-16T12:38:42.840Z,309.38
2023-03-16T12:39:42.836Z,309.38
2023-03-16T12:40:42.820Z,309.38
2023-03-16T12:41:42.795Z,309.38
2023-03-16T12:42:42.892Z,315.00
2023-03-16T12:43:42.898Z,320.62
2023-03-16T12:44:42.770Z,326.25
2023-03-16T12:45:42.813Z,331.88
2023-03-16T12:46:42.764Z,331.88
2023-03-16T12:47:42.725Z,337.50
2023-03-16T12:48:42.721Z,337.50
2023-03-16T12:49:42.712Z,343.12
2023-03-16T12:50:42.674Z,343.12
2023-03-16T12:51:42.681Z,343.12
2023-03-16T12:52:42.686Z,337.50
2023-03-16T12:53:42.643Z,337.50
2023-03-16T12:54:42.676Z,337.50
2023-03-16T12:55:42.603Z,331.88
2023-03-16T12:56:42.598Z,331.88